createdAt,value
2023-02-03T00:03:08.632Z,1.90
2023-02-03T00:07:13.768Z,1.73
2023-02-03T00:11:15.577Z,1.90
2023-02-03T00:15:17.387Z,2.10
2023-02-03T00:19:19.159Z,1.88
2023-02-03T00:23:20.957Z,1.52
2023-02-03T00:27:22.836Z,1.38
2023-02-03T00:31:25.014Z,1.23
2023-02-03T00:35:26.967Z,1.10
2023-02-03T00:39:28.962Z,1.15
2023-02-03T00:43:31.225Z,1.02
2023-02-03T00:47:32.999Z,1.10
2023-02-03T00:51:35.380Z,1.10
2023-02-03T00:55:37.130Z,1.10
2023-02-03T00:59:39.739Z,1.50
2023-02-03T01:03:41.618Z,1.40
2023-02-03T01:07:44.507Z,1.92
2023-02-03T01:11:46.907Z,1.90
2023-02-03T01:15:49.500Z,1.70
2023-02-03T01:19:52.111Z,1.60
2023-02-03T01:23:54.727Z,1.73
2023-02-03T01:27:56.494Z,1.50
2023-02-03T01:31:59.116Z,1.80
2023-02-03T01:36:01.480Z,1.75
2023-02-03T01:40:05.246Z,1.65
2023-02-03T01:44:34.118Z,2.20
2023-02-03T01:48:36.121Z,2.25
2023-02-03T01:52:41.231Z,2.05
2023-02-03T01:56:48.033Z,2.08
2023-02-03T02:00:50.054Z,2.65
2023-02-03T02:05:35.562Z,2.90
2023-02-03T02:09:37.513Z,3.20
2023-02-03T02:13:40.047Z,2.78
2023-02-03T02:18:11.251Z,3.40
2023-02-03T02:22:37.666Z,2.55
2023-02-03T02:26:57.622Z,2.70
2023-02-03T02:31:18.275Z,3.05
2023-02-03T02:35:20.197Z,2.60
2023-02-03T02:39:43.564Z,3.00
2023-02-03T02:44:00.349Z,3.20
2023-02-03T02:48:15.515Z,3.17
2023-02-03T02:52:19.470Z,3.00
2023-02-03T02:56:25.552Z,2.97
2023-02-03T03:00:31.468Z,3.20
2023-02-03T03:04:35.298Z,3.17
2023-02-03T03:08:46.019Z,3.97
2023-02-03T03:12:54.472Z,2.72
2023-02-03T03:17:06.048Z,3.22
2023-02-03T03:21:08.393Z,3.03
2023-02-03T03:25:16.045Z,3.25
2023-02-03T03:29:35.261Z,2.63
2023-02-03T03:33:37.283Z,3.00
2023-02-03T03:37:55.745Z,3.15
2023-02-03T03:42:18.904Z,3.63
2023-02-03T03:46:27.096Z,3.20
2023-02-03T03:50:33.147Z,3.20
2023-02-03T03:54:37.656Z,2.47
2023-02-03T03:58:45.147Z,2.78
2023-02-03T04:02:53.154Z,3.13
2023-02-03T04:06:55.930Z,3.17
2023-02-03T04:10:58.089Z,3.08
2023-02-03T04:15:00.090Z,3.03
2023-02-03T04:19:02.215Z,3.00
2023-02-03T04:23:04.570Z,2.97
2023-02-03T04:27:06.661Z,3.00
2023-02-03T04:31:08.899Z,3.53
2023-02-03T04:35:11.331Z,3.17
2023-02-03T04:39:13.416Z,3.08
2023-02-03T04:43:17.242Z,3.10
2023-02-03T04:47:20.114Z,2.42
2023-02-03T04:51:22.289Z,3.00
2023-02-03T04:55:24.618Z,3.15
2023-02-03T04:59:27.316Z,2.40
2023-02-03T05:03:29.326Z,2.72
2023-02-03T05:07:31.355Z,2.55
2023-02-03T05:11:33.643Z,2.72
2023-02-03T05:15:35.850Z,3.10
2023-02-03T05:19:37.960Z,2.83
2023-02-03T05:23:39.897Z,2.42
2023-02-03T05:27:42.590Z,2.72
2023-02-03T05:31:44.686Z,2.15
2023-02-03T05:35:46.829Z,3.05
2023-02-03T05:39:48.623Z,2.35
2023-02-03T05:43:50.632Z,3.17
2023-02-03T05:47:52.644Z,3.15
2023-02-03T05:51:55.235Z,3.05
2023-02-03T05:55:57.297Z,2.90
2023-02-03T05:59:59.322Z,3.10
2023-02-03T06:04:02.707Z,3.00
2023-02-03T06:08:04.714Z,3.15
2023-02-03T06:12:06.715Z,2.75
2023-02-03T06:16:08.534Z,3.20
2023-02-03T06:20:12.252Z,2.55
2023-02-03T06:24:14.070Z,2.72
2023-02-03T06:28:16.508Z,2.55
2023-02-03T06:32:18.422Z,2.00
2023-02-03T06:36:20.279Z,2.90
2023-02-03T06:40:22.171Z,2.40
2023-02-03T06:44:23.995Z,2.92
2023-02-03T06:48:25.746Z,2.55
2023-02-03T06:52:27.501Z,1.90
2023-02-03T06:56:30.109Z,2.70
2023-02-03T07:00:32.196Z,2.80
2023-02-03T07:04:34.087Z,2.70
2023-02-03T07:08:35.859Z,2.35
2023-02-03T07:12:37.738Z,2.75
2023-02-03T07:16:39.506Z,2.42
2023-02-03T07:20:41.269Z,2.38
2023-02-03T07:24:43.080Z,2.10
2023-02-03T07:28:44.920Z,1.63
2023-02-03T07:32:49.087Z,1.88
2023-02-03T07:36:50.847Z,1.95
2023-02-03T07:40:53.020Z,2.10
2023-02-03T07:44:54.813Z,2.03
2023-02-03T07:48:56.639Z,1.73
2023-02-03T07:52:58.563Z,1.88
2023-02-03T07:57:00.344Z,1.90
2023-02-03T08:01:02.112Z,2.00
2023-02-03T08:05:03.994Z,1.75
2023-02-03T08:09:05.786Z,1.80
2023-02-03T08:13:07.747Z,1.63
2023-02-03T08:17:09.667Z,1.48
2023-02-03T08:21:11.585Z,1.40
2023-02-03T08:25:13.449Z,1.55
2023-02-03T08:29:15.231Z,1.70
2023-02-03T08:33:17.077Z,2.00
2023-02-03T08:37:22.592Z,1.90
2023-02-03T08:41:24.396Z,1.80
2023-02-03T08:45:26.239Z,1.42
2023-02-03T08:49:30.133Z,1.50
2023-02-03T08:53:31.907Z,1.40
2023-02-03T08:57:37.468Z,1.90
2023-02-03T09:01:40.880Z,1.85
2023-02-03T09:05:42.936Z,1.30
2023-02-03T09:09:44.775Z,1.60
2023-02-03T09:13:46.633Z,1.45
2023-02-03T09:17:48.461Z,1.67
2023-02-03T09:21:50.756Z,1.70
2023-02-03T09:25:52.720Z,1.70
2023-02-03T09:29:54.487Z,1.45
2023-02-03T09:33:56.241Z,1.60
2023-02-03T09:37:58.890Z,1.77
2023-02-03T09:42:19.667Z,2.17
2023-02-03T09:46:28.364Z,1.80
2023-02-03T09:50:34.717Z,2.00
2023-02-03T09:54:39.561Z,1.50
2023-02-03T09:58:41.512Z,1.83
2023-02-03T10:02:56.178Z,1.80
2023-02-03T10:07:25.488Z,1.63
2023-02-03T10:11:38.429Z,1.52
2023-02-03T10:15:58.558Z,1.60
2023-02-03T10:20:15.825Z,1.60
2023-02-03T10:28:27.785Z,1.48
2023-02-03T10:32:30.434Z,1.48
2023-02-03T10:36:59.684Z,1.58
2023-02-03T10:41:02.526Z,1.42
2023-02-03T10:45:04.965Z,1.70
2023-02-03T10:49:06.718Z,1.40
2023-02-03T10:53:32.530Z,1.85
2023-02-03T10:57:39.398Z,1.55
2023-02-03T11:01:45.052Z,1.75
2023-02-03T11:05:47.288Z,1.52
2023-02-03T11:09:49.136Z,1.55
2023-02-03T11:14:17.202Z,1.30
2023-02-03T11:18:56.119Z,2.00
2023-02-03T11:22:58.328Z,1.88
2023-02-03T11:27:13.146Z,1.80
2023-02-03T11:31:22.373Z,1.80
2023-02-03T11:35:26.731Z,1.95
2023-02-03T11:39:35.695Z,1.60
2023-02-03T11:43:37.465Z,1.95
2023-02-03T11:47:43.854Z,1.75
2023-02-03T11:52:11.074Z,1.70
2023-02-03T11:56:29.827Z,1.30
2023-02-03T12:01:00.590Z,1.75
2023-02-03T12:05:15.734Z,1.70
2023-02-03T12:09:20.719Z,1.73
2023-02-03T12:13:42.283Z,2.08
2023-02-03T12:18:02.509Z,2.00
2023-02-03T12:22:20.640Z,2.40
2023-02-03T12:26:25.888Z,1.60
2023-02-03T12:30:52.149Z,2.00
2023-02-03T12:35:00.010Z,1.83
2023-02-03T12:39:11.371Z,2.22
2023-02-03T12:43:23.635Z,1.90
2023-02-03T12:47:46.041Z,1.63
2023-02-03T12:52:03.363Z,2.10
2023-02-03T13:00:27.048Z,2.78
2023-02-03T13:04:44.881Z,1.70
2023-02-03T13:08:53.979Z,2.05
2023-02-03T13:12:59.735Z,1.95
2023-02-03T13:17:31.555Z,1.70
2023-02-03T13:21:33.428Z,1.73
2023-02-03T13:26:12.582Z,1.63
2023-02-03T13:30:20.015Z,1.55
2023-02-03T13:34:40.081Z,1.52
2023-02-03T13:38:54.065Z,1.20
2023-02-03T13:43:01.573Z,1.60
2023-02-03T13:47:04.069Z,1.50
2023-02-03T13:51:14.728Z,1.63
2023-02-03T13:55:51.819Z,1.23
2023-02-03T13:59:53.648Z,1.57
2023-02-03T14:03:56.699Z,1.30
2023-02-03T14:07:58.598Z,1.40
2023-02-03T14:12:15.360Z,1.17
2023-02-03T14:16:24.814Z,1.33
2023-02-03T14:20:29.419Z,1.60
2023-02-03T14:24:34.664Z,1.70
2023-02-03T14:28:45.235Z,1.38
2023-02-03T14:32:59.098Z,1.27
2023-02-03T14:37:18.327Z,1.60
2023-02-03T14:41:33.493Z,1.60
2023-02-03T14:45:54.795Z,1.77
2023-02-03T14:50:08.409Z,1.52
2023-02-03T14:54:21.719Z,2.05
2023-02-03T14:58:45.975Z,1.70
2023-02-03T15:03:12.317Z,1.70
2023-02-03T15:07:35.763Z,1.52
2023-02-03T15:11:47.873Z,1.67
2023-02-03T15:15:52.782Z,1.38
2023-02-03T15:19:54.750Z,1.70
2023-02-03T15:23:56.519Z,1.40
2023-02-03T15:28:20.452Z,1.70
2023-02-03T15:32:22.210Z,1.30
2023-02-03T15:36:31.749Z,1.40
2023-02-03T15:40:50.996Z,1.67
2023-02-03T15:45:03.763Z,0.98
2023-02-03T15:49:12.524Z,1.17
2023-02-03T15:53:34.466Z,1.73
2023-02-03T15:57:39.641Z,1.48
2023-02-03T16:01:41.505Z,1.75
2023-02-03T16:05:48.748Z,1.65
2023-02-03T16:09:55.605Z,1.30
2023-02-03T16:14:00.053Z,1.27
2023-02-03T16:18:02.025Z,1.63
2023-02-03T16:22:03.751Z,1.42
2023-02-03T16:26:26.410Z,1.45
2023-02-03T16:30:46.752Z,1.60
2023-02-03T16:35:07.180Z,1.35
2023-02-03T16:39:31.281Z,1.35
2023-02-03T16:43:51.653Z,1.48
2023-02-03T16:48:12.106Z,1.40
2023-02-03T16:52:13.855Z,1.55
2023-02-03T16:56:18.610Z,1.40
2023-02-03T17:00:23.241Z,1.40
2023-02-03T17:04:25.032Z,1.42
2023-02-03T17:08:26.930Z,1.45
2023-02-03T17:12:30.845Z,1.45
2023-02-03T17:16:33.532Z,1.30
2023-02-03T17:20:36.290Z,1.38
2023-02-03T17:24:38.050Z,1.40
2023-02-03T17:28:43.014Z,1.40
2023-02-03T17:32:44.919Z,1.30
2023-02-03T17:36:46.652Z,1.30
2023-02-03T17:53:48.594Z,1.20
2023-02-03T17:57:51.006Z,1.27
2023-02-03T18:01:53.018Z,1.80
2023-02-03T18:05:54.801Z,1.40
2023-02-03T18:09:56.601Z,1.70
2023-02-03T18:13:58.482Z,1.10
2023-02-03T18:18:00.266Z,1.20
2023-02-03T18:22:02.095Z,1.20
2023-02-03T18:26:05.133Z,1.27
2023-02-03T18:30:09.063Z,1.38
2023-02-03T18:34:11.522Z,2.30
2023-02-03T18:38:13.287Z,1.42
2023-02-03T18:42:15.229Z,1.75
2023-02-03T18:46:23.098Z,1.70
2023-02-03T18:50:25.638Z,1.30
2023-02-03T18:54:29.626Z,1.58
2023-02-03T18:58:31.434Z,1.30
2023-02-03T19:02:34.313Z,1.48
2023-02-03T19:06:36.237Z,1.48
2023-02-03T19:10:38.047Z,1.38
2023-02-03T19:14:39.806Z,1.48
2023-02-03T19:18:41.724Z,1.60
2023-02-03T19:22:43.530Z,1.40
2023-02-03T19:26:45.733Z,1.48
2023-02-03T19:30:48.480Z,1.60
2023-02-03T19:34:51.182Z,1.45
2023-02-03T19:38:52.938Z,1.67
2023-02-03T19:42:54.724Z,1.70
2023-02-03T19:46:56.557Z,2.10
2023-02-03T19:50:58.296Z,1.80
2023-02-03T19:55:00.129Z,2.60
2023-02-03T19:59:02.063Z,2.35
2023-02-03T20:03:04.315Z,2.58
2023-02-03T20:07:06.087Z,2.50
2023-02-03T20:11:07.931Z,2.63
2023-02-03T20:15:09.995Z,3.00
2023-02-03T20:19:11.770Z,2.90
2023-02-03T20:23:13.518Z,6.25
2023-02-03T20:27:15.362Z,7.13
2023-02-03T20:31:17.226Z,3.22
2023-02-03T20:35:19.836Z,3.05
2023-02-03T20:39:22.182Z,4.10
2023-02-03T20:43:26.513Z,5.13
2023-02-03T20:47:34.037Z,8.23
2023-02-03T20:51:35.810Z,4.45
2023-02-03T20:55:37.655Z,4.40
2023-02-03T20:59:39.518Z,3.30
2023-02-03T21:04:00.420Z,3.05
2023-02-03T21:08:09.991Z,4.80
2023-02-03T21:12:15.086Z,4.75
2023-02-03T21:16:28.370Z,2.20
2023-02-03T21:20:32.178Z,1.60
2023-02-03T21:24:38.015Z,1.45
2023-02-03T21:28:39.781Z,1.45
2023-02-03T21:32:41.544Z,1.48
2023-02-03T21:36:43.266Z,1.38
2023-02-03T21:40:45.040Z,1.55
2023-02-03T21:44:46.821Z,2.40
2023-02-03T21:48:56.212Z,3.70
2023-02-03T21:53:12.816Z,2.42
2023-02-03T21:57:15.356Z,2.20
2023-02-03T22:01:19.279Z,2.10
2023-02-03T22:05:21.114Z,2.03
2023-02-03T22:09:25.501Z,2.20
2023-02-03T22:13:27.258Z,4.00
2023-02-03T22:17:29.031Z,9.23
2023-02-03T22:21:30.856Z,6.32
2023-02-03T22:25:32.962Z,2.72
2023-02-03T22:29:34.719Z,2.75
2023-02-03T22:33:36.582Z,2.38
2023-02-03T22:37:38.358Z,6.93
2023-02-03T22:41:40.125Z,6.30
2023-02-03T22:45:41.961Z,7.05
2023-02-03T22:49:43.901Z,6.45
2023-02-03T22:53:45.732Z,5.38
2023-02-03T22:57:49.917Z,5.95
2023-02-03T23:01:51.693Z,6.75
2023-02-03T23:05:53.640Z,8.38
2023-02-03T23:09:56.547Z,6.40
2023-02-03T23:13:58.310Z,4.00
2023-02-03T23:18:00.199Z,4.75
2023-02-03T23:22:01.963Z,3.88
2023-02-03T23:26:03.734Z,4.00
2023-02-03T23:30:06.831Z,2.40
2023-02-03T23:34:27.189Z,3.80
2023-02-03T23:38:28.964Z,3.60
2023-02-03T23:42:30.724Z,3.92
2023-02-03T23:46:32.577Z,3.92
2023-02-03T23:50:34.369Z,3.78
2023-02-03T23:54:36.111Z,3.33
2023-02-03T23:58:37.882Z,4.45
